Detall de PIREP

Printer-friendly versionPDF version

[2014/01/07 22:27:00]
Flight IATA:CT1004
Pilot Number:026
Company ICAO:CAT
Aircraft Type:DC85/A
PAX:132
Aircraft Registration:PAX
Departing Airport: LOWI
Destination Airport: LEBL
Alternate Airport:LERS
Online: VATSIM
Route:RTT Y703 INN UM726 BZO UM984 DIVKO UN975 BISBA
Flight Level:F350
No Slew and time accel
No pause
Crash detect
Detect pilot in Cockpit between each 30 and 45 minutes
22:27 Zero fuel Weight: 179999 Lbs, Fuel Weight: 33002 Lbs
22:27 VATSIM:LOWI 072150Z VRB01KT CAVOK M00/M01 Q1023 R08/19//63 NOSIG
22:27 VATSIM:LEBL 072200Z 33004KT 290V010 9999 FEW015 09/08 Q1022 NOSIG
22:28 VOICE CATALONIAN / X-MAS CHARTER
22:31 Parking Brakes off
22:42 Take-off
22:42 Take off Weight: 211746 Lbs
22:42 Wind: 238º @ 004 Knots Heading: 260º
22:42 POS N47º 15´ 30´´ E011º 19´ 42´´
22:42 Gear Up: 166 Knots
22:42 Flaps:2 at 166 Knots
22:42 Flaps:1 at 176 Knots
22:44 Flaps:0 at 207 Knots
22:57 Wind:235º@009 Knots Heading: 234º Ground Speed: 341 Knots Altitude 27053 ft
23:07 TOC
23:07 Fuel Weight: 25067 Lb
23:12 Wind:347º@004 Knots Heading: 248º Ground Speed: 474 Knots Altitude 35324 ft
23:27 Wind:251º@008 Knots Heading: 215º Ground Speed: 469 Knots Altitude 35344 ft
23:42 Wind:013º@003 Knots Heading: 251º Ground Speed: 470 Knots Altitude 35370 ft
23:49 TOD
23:49 Fuel Weight: 15235 Lb
23:57 Wind:071º@013 Knots Heading: 225º Ground Speed: 473 Knots Altitude 25013 ft
00:12 Wind:066º@001 Knots Heading: 215º Ground Speed: 204 Knots Altitude 4330 ft
00:15 Flaps:1 at 184 Knots
00:15 Gear Down: 187 Knots
00:15 Flaps:2 at 184 Knots
00:16 Flaps:3 at 175 Knots
00:16 Flaps:4 at 166 Knots
00:17 Flaps:5 at 141 Knots
00:18 TouchDown:Rate -207 ft/min Speed: 129 Knots
00:18 VATSIM:LEBL 080000Z 32005KT 9000 SCT007 09/07 Q1022 NOSIG
00:18 Land
00:18 Wind:318º@005 Knots
00:18 Heading: 246º
00:18 Flight Duration: 01:36
00:18 Landing Weight: 191597 Lbs
00:18 POS N41º 18´ 02´´ E002º 05´ 20´´
00:24 Parking brakes on
00:24 Block to Block Duration: 01:53
00:24 Final Fuel: 11049 Lbls
00:24 Spent Fuel: 21953 Lbls
00:24 Flight Length: 636 NM
00:24 TOD Land Length: 166 NM

Exportar CSV

Powered by Drupal - Modified by Danger4k